createdAt,value
2018-10-09T00:02:11.699Z,20.50
2018-10-09T00:04:40.580Z,22.60
2018-10-09T00:07:09.152Z,22.00
2018-10-09T00:09:37.740Z,23.67
2018-10-09T00:12:06.649Z,22.83
2018-10-09T00:14:35.256Z,22.67
2018-10-09T00:17:03.872Z,24.30
2018-10-09T00:19:32.551Z,25.57
2018-10-09T00:22:01.116Z,26.73
2018-10-09T00:24:29.699Z,24.30
2018-10-09T00:26:58.538Z,25.63
2018-10-09T00:29:27.156Z,26.13
2018-10-09T00:31:55.736Z,25.47
2018-10-09T00:34:24.486Z,26.40
2018-10-09T00:36:53.040Z,26.10
2018-10-09T00:39:21.599Z,25.30
2018-10-09T00:41:50.200Z,25.13
2018-10-09T00:44:18.803Z,24.70
2018-10-09T00:46:47.388Z,25.10
2018-10-09T00:49:16.227Z,23.73
2018-10-09T00:51:44.814Z,22.30
2018-10-09T00:54:13.411Z,22.57
2018-10-09T00:56:42.136Z,22.50
2018-10-09T00:59:10.726Z,22.33
2018-10-09T01:01:39.452Z,25.40
2018-10-09T01:04:08.140Z,22.20
2018-10-09T01:06:36.728Z,20.93
2018-10-09T01:09:07.771Z,22.57
2018-10-09T01:11:36.380Z,22.50
2018-10-09T01:14:04.985Z,23.03
2018-10-09T01:16:34.096Z,20.23
2018-10-09T01:19:02.664Z,22.77
2018-10-09T01:21:31.240Z,19.93
2018-10-09T01:23:59.835Z,22.87
2018-10-09T01:26:28.413Z,21.87
2018-10-09T01:28:57.000Z,21.33
2018-10-09T01:31:25.672Z,23.90
2018-10-09T01:33:54.240Z,26.53
2018-10-09T01:36:22.807Z,23.40
2018-10-09T01:38:52.271Z,26.40
2018-10-09T01:41:20.835Z,25.30
2018-10-09T01:43:49.429Z,25.20
2018-10-09T01:46:18.285Z,27.07
2018-10-09T01:48:46.888Z,29.57
2018-10-09T01:51:15.464Z,26.57
2018-10-09T01:53:44.128Z,27.30
2018-10-09T01:56:12.884Z,26.90
2018-10-09T01:58:41.476Z,28.30
2018-10-09T02:01:10.078Z,24.77
2018-10-09T02:03:38.751Z,25.80
2018-10-09T02:06:09.495Z,25.53
2018-10-09T02:08:38.863Z,26.20
2018-10-09T02:11:07.742Z,24.80
2018-10-09T02:13:36.753Z,25.20
2018-10-09T02:16:05.411Z,25.47
2018-10-09T02:18:34.001Z,27.17
2018-10-09T02:21:02.856Z,29.93
2018-10-09T02:23:31.439Z,24.43
2018-10-09T02:26:00.021Z,27.23
2018-10-09T02:28:28.727Z,24.17
2018-10-09T02:30:57.340Z,26.40
2018-10-09T02:33:26.017Z,26.63
2018-10-09T02:35:54.872Z,27.80
2018-10-09T02:38:23.480Z,27.10
2018-10-09T02:40:52.099Z,29.97
2018-10-09T02:43:21.100Z,30.77
2018-10-09T02:45:49.680Z,29.53
2018-10-09T02:48:18.263Z,26.80
2018-10-09T02:50:46.952Z,28.07
2018-10-09T02:53:15.899Z,30.57
2018-10-09T02:55:44.480Z,28.23
2018-10-09T02:58:13.111Z,30.10
2018-10-09T03:00:41.702Z,28.43
2018-10-09T03:03:10.279Z,27.50
2018-10-09T03:05:39.020Z,27.37
2018-10-09T03:08:07.595Z,29.83
2018-10-09T03:10:36.184Z,28.50
2018-10-09T03:13:04.901Z,30.03
2018-10-09T03:15:33.492Z,28.17
2018-10-09T03:18:02.076Z,26.67
2018-10-09T03:20:31.281Z,31.43
2018-10-09T03:22:59.872Z,27.90
2018-10-09T03:25:28.433Z,29.40
2018-10-09T03:27:57.221Z,28.00
2018-10-09T03:30:25.788Z,25.70
2018-10-09T03:32:54.396Z,25.93
2018-10-09T03:35:23.080Z,24.00
2018-10-09T03:37:51.656Z,25.60
2018-10-09T03:40:20.237Z,27.00
2018-10-09T03:42:48.936Z,29.50
2018-10-09T03:45:17.564Z,32.77
2018-10-09T03:47:46.167Z,30.40
2018-10-09T03:50:14.808Z,28.90
2018-10-09T03:52:43.399Z,28.17
2018-10-09T03:55:11.992Z,28.10
2018-10-09T03:57:40.628Z,32.50
2018-10-09T04:00:09.334Z,30.07
2018-10-09T04:02:37.909Z,30.40
2018-10-09T04:05:06.638Z,28.17
2018-10-09T04:07:35.320Z,28.73
2018-10-09T04:10:03.932Z,30.60
2018-10-09T04:12:32.576Z,27.07
2018-10-09T04:15:01.161Z,30.57
2018-10-09T04:17:29.765Z,26.37
2018-10-09T04:19:58.612Z,28.77
2018-10-09T04:22:27.224Z,28.53
2018-10-09T04:24:55.811Z,29.37
2018-10-09T04:27:24.520Z,27.40
2018-10-09T04:29:53.194Z,27.17
2018-10-09T04:32:21.797Z,25.80
2018-10-09T04:34:50.610Z,29.77
2018-10-09T04:37:19.224Z,26.87
2018-10-09T04:39:47.915Z,26.27
2018-10-09T04:42:16.643Z,23.67
2018-10-09T04:44:45.240Z,25.40
2018-10-09T04:47:13.826Z,25.47
2018-10-09T04:49:42.539Z,29.83
2018-10-09T04:52:11.111Z,23.47
2018-10-09T04:54:40.054Z,24.97
2018-10-09T04:57:08.731Z,24.90
2018-10-09T04:59:37.320Z,25.03
2018-10-09T05:02:05.903Z,24.77
2018-10-09T05:04:34.597Z,24.47
2018-10-09T05:07:03.186Z,24.90
2018-10-09T05:09:31.766Z,25.37
2018-10-09T05:12:00.785Z,23.10
2018-10-09T05:14:29.553Z,23.00
2018-10-09T05:16:58.129Z,25.10
2018-10-09T05:19:26.820Z,24.27
2018-10-09T05:21:55.398Z,23.57
2018-10-09T05:24:23.979Z,23.90
2018-10-09T05:26:52.655Z,23.47
2018-10-09T05:29:21.232Z,24.80
2018-10-09T05:31:49.792Z,21.20
2018-10-09T05:34:18.491Z,23.73
2018-10-09T05:36:47.084Z,23.13
2018-10-09T05:39:15.647Z,23.77
2018-10-09T05:41:44.992Z,25.10
2018-10-09T05:44:13.874Z,22.90
2018-10-09T05:46:42.428Z,22.87
2018-10-09T05:49:11.095Z,23.77
2018-10-09T05:51:39.696Z,23.87
2018-10-09T05:54:08.323Z,22.03
2018-10-09T05:56:37.020Z,20.00
2018-10-09T05:59:05.899Z,22.87
2018-10-09T06:01:34.480Z,23.23
2018-10-09T06:04:03.539Z,25.97
2018-10-09T06:06:32.100Z,24.10
2018-10-09T06:09:01.085Z,25.70
2018-10-09T06:11:30.281Z,24.60
2018-10-09T06:13:58.864Z,24.70
2018-10-09T06:16:27.447Z,27.37
2018-10-09T06:18:56.052Z,22.70
2018-10-09T06:21:25.377Z,24.30
2018-10-09T06:23:53.971Z,24.43
2018-10-09T06:26:22.644Z,23.63
2018-10-09T06:28:51.235Z,23.77
2018-10-09T06:31:19.808Z,23.00
2018-10-09T06:33:48.465Z,25.47
2018-10-09T06:36:17.052Z,23.13
2018-10-09T06:38:45.616Z,23.50
2018-10-09T06:41:14.336Z,25.00
2018-10-09T06:43:42.923Z,26.20
2018-10-09T06:46:15.976Z,26.37
2018-10-09T06:48:44.552Z,28.90
2018-10-09T06:51:13.119Z,27.27
2018-10-09T06:53:41.877Z,28.13
2018-10-09T06:56:10.775Z,25.67
2018-10-09T06:58:39.844Z,26.00
2018-10-09T07:01:08.855Z,26.40
2018-10-09T07:03:37.492Z,24.53
2018-10-09T07:06:06.079Z,27.40
2018-10-09T07:08:34.784Z,26.63
2018-10-09T07:11:03.416Z,24.23
2018-10-09T07:13:31.979Z,27.63
2018-10-09T07:16:01.016Z,26.27
2018-10-09T07:18:30.073Z,25.07
2018-10-09T07:20:58.652Z,25.70
2018-10-09T07:23:27.384Z,25.37
2018-10-09T07:25:55.967Z,25.00
2018-10-09T07:28:24.523Z,26.03
2018-10-09T07:30:53.183Z,27.60
2018-10-09T07:33:21.777Z,26.63
2018-10-09T07:35:50.351Z,27.30
2018-10-09T07:38:18.963Z,26.17
2018-10-09T07:40:47.532Z,26.40
2018-10-09T07:43:16.132Z,26.90
2018-10-09T07:45:45.017Z,27.50
2018-10-09T07:48:13.608Z,25.03
2018-10-09T07:50:42.216Z,27.33
2018-10-09T07:53:10.807Z,26.20
2018-10-09T07:55:39.537Z,28.73
2018-10-09T07:58:08.200Z,28.83
2018-10-09T08:00:36.876Z,27.97
2018-10-09T08:03:05.463Z,26.27
2018-10-09T08:05:34.032Z,26.27
2018-10-09T08:08:02.716Z,28.43
2018-10-09T08:10:31.384Z,27.67
2018-10-09T08:13:00.337Z,31.53
2018-10-09T08:15:29.395Z,30.23
2018-10-09T08:17:57.979Z,29.40
2018-10-09T08:20:26.574Z,32.10
2018-10-09T08:22:55.326Z,31.90
2018-10-09T08:25:23.812Z,31.77
2018-10-09T08:27:52.380Z,32.57
2018-10-09T08:30:20.999Z,36.70
2018-10-09T08:32:49.600Z,34.23
2018-10-09T08:35:18.171Z,30.17
2018-10-09T08:37:46.820Z,30.10
2018-10-09T08:40:15.449Z,28.23
2018-10-09T08:42:44.000Z,29.90
2018-10-09T08:45:12.707Z,30.00
2018-10-09T08:47:41.306Z,31.80
2018-10-09T08:50:09.898Z,31.87
2018-10-09T08:52:38.559Z,33.53
2018-10-09T08:55:07.177Z,32.60
2018-10-09T08:57:35.780Z,32.03
2018-10-09T09:00:05.436Z,30.37
2018-10-09T09:02:34.004Z,32.73
2018-10-09T09:05:03.129Z,32.43
2018-10-09T09:07:31.807Z,32.23
2018-10-09T09:10:00.372Z,32.00
2018-10-09T09:12:29.524Z,33.50
2018-10-09T09:14:58.205Z,35.10
2018-10-09T09:17:26.804Z,34.00
2018-10-09T09:19:55.417Z,33.10
2018-10-09T09:22:24.169Z,34.77
2018-10-09T09:24:52.771Z,36.40
2018-10-09T09:27:21.447Z,32.40
2018-10-09T09:29:49.991Z,35.00
2018-10-09T09:32:18.588Z,36.93
2018-10-09T09:34:47.193Z,34.20
2018-10-09T09:37:15.912Z,36.53
2018-10-09T09:39:44.492Z,34.90
2018-10-09T09:42:13.104Z,36.83
2018-10-09T09:44:41.791Z,35.77
2018-10-09T09:47:10.388Z,34.93
2018-10-09T09:49:38.963Z,35.67
2018-10-09T09:52:07.757Z,34.87
2018-10-09T09:54:36.279Z,33.00
2018-10-09T09:57:04.904Z,32.50
2018-10-09T09:59:33.548Z,35.33
2018-10-09T10:02:02.144Z,35.10
2018-10-09T10:04:30.720Z,35.40
2018-10-09T10:06:59.449Z,31.73
2018-10-09T10:09:28.126Z,34.50
2018-10-09T10:11:56.645Z,33.53
2018-10-09T10:14:25.254Z,32.37
2018-10-09T10:16:53.849Z,34.30
2018-10-09T10:19:22.440Z,33.70
2018-10-09T10:21:51.479Z,34.00
2018-10-09T10:24:20.110Z,33.07
2018-10-09T10:26:48.675Z,34.20
2018-10-09T10:29:17.360Z,33.63
2018-10-09T10:31:45.910Z,33.60
2018-10-09T10:34:14.526Z,27.07
2018-10-09T10:36:43.279Z,27.07
2018-10-09T10:39:12.877Z,28.93
2018-10-09T10:41:42.117Z,27.30
2018-10-09T10:44:10.827Z,28.00
2018-10-09T10:46:40.572Z,30.70
2018-10-09T10:49:11.853Z,27.53
2018-10-09T10:51:40.387Z,29.20
2018-10-09T10:54:09.021Z,28.50
2018-10-09T10:56:37.719Z,28.63
2018-10-09T10:59:06.330Z,29.27
2018-10-09T11:01:34.967Z,31.30
2018-10-09T11:04:03.536Z,29.03
2018-10-09T11:06:32.193Z,27.33
2018-10-09T11:09:00.775Z,25.50
2018-10-09T11:11:30.338Z,27.00
2018-10-09T11:13:58.903Z,22.73
2018-10-09T11:16:27.648Z,26.10
2018-10-09T11:18:56.703Z,24.40
2018-10-09T11:21:25.348Z,23.50
2018-10-09T11:23:54.364Z,23.27
2018-10-09T11:26:23.373Z,23.50
2018-10-09T11:28:51.960Z,22.07
2018-10-09T11:31:20.616Z,20.60
2018-10-09T11:33:49.344Z,21.70
2018-10-09T11:36:17.936Z,18.57
2018-10-09T11:38:46.512Z,20.93
2018-10-09T11:41:15.145Z,18.93
2018-10-09T11:43:43.746Z,19.30
2018-10-09T11:46:12.368Z,21.27
2018-10-09T11:48:40.980Z,18.30
2018-10-09T11:51:09.595Z,16.57
2018-10-09T11:53:38.178Z,17.33
2018-10-09T11:56:07.136Z,16.87
2018-10-09T11:58:36.053Z,17.63
2018-10-09T12:01:06.900Z,18.50
2018-10-09T12:03:35.583Z,21.10
2018-10-09T12:06:04.227Z,18.23
2018-10-09T12:08:32.852Z,20.37
2018-10-09T12:11:01.964Z,20.43
2018-10-09T12:13:30.585Z,19.37
2018-10-09T12:15:59.812Z,20.37
2018-10-09T12:18:28.295Z,21.50
2018-10-09T12:20:56.928Z,21.07
2018-10-09T12:23:25.651Z,20.47
2018-10-09T12:25:54.304Z,23.73
2018-10-09T12:28:23.321Z,18.77
2018-10-09T12:30:52.403Z,20.77
2018-10-09T12:33:21.069Z,21.40
2018-10-09T12:35:49.675Z,22.00
2018-10-09T12:38:18.449Z,20.27
2018-10-09T12:40:47.116Z,20.37
2018-10-09T12:43:16.088Z,22.17
2018-10-09T12:45:44.732Z,20.20
2018-10-09T12:48:13.360Z,21.93
2018-10-09T12:50:42.339Z,21.70
2018-10-09T12:53:11.008Z,19.23
2018-10-09T12:55:39.634Z,19.50
2018-10-09T12:58:08.636Z,21.00
2018-10-09T13:00:37.600Z,19.90
2018-10-09T13:03:06.685Z,19.73
2018-10-09T13:05:35.260Z,20.77
2018-10-09T13:08:03.932Z,23.33
2018-10-09T13:10:32.521Z,20.43
2018-10-09T13:13:01.140Z,19.70
2018-10-09T13:15:29.828Z,21.97
2018-10-09T13:17:58.406Z,21.17
2018-10-09T13:20:27.000Z,20.47
2018-10-09T13:22:56.181Z,20.30
2018-10-09T13:25:24.756Z,20.70
2018-10-09T13:27:53.388Z,20.30
2018-10-09T13:30:22.017Z,20.30
2018-10-09T13:32:50.632Z,21.47
2018-10-09T13:35:19.242Z,17.70
2018-10-09T13:37:47.959Z,19.00
2018-10-09T13:40:16.533Z,18.67
2018-10-09T13:42:45.115Z,16.60
2018-10-09T13:45:13.820Z,19.37
2018-10-09T13:47:42.482Z,18.03
2018-10-09T13:50:11.042Z,17.40
2018-10-09T13:52:40.084Z,17.57
2018-10-09T13:55:08.721Z,18.20
2018-10-09T13:57:37.660Z,17.23
2018-10-09T14:00:06.797Z,17.80
2018-10-09T14:02:35.396Z,16.90
2018-10-09T14:05:04.012Z,15.33
2018-10-09T14:07:32.699Z,16.67
2018-10-09T14:10:01.296Z,18.27
2018-10-09T14:12:29.896Z,16.77
2018-10-09T14:14:58.674Z,17.43
2018-10-09T14:17:27.291Z,17.07
2018-10-09T14:19:55.860Z,14.50
2018-10-09T14:22:25.007Z,14.87
2018-10-09T14:24:53.579Z,15.90
2018-10-09T14:27:22.188Z,14.50
2018-10-09T14:29:50.872Z,14.23
2018-10-09T14:32:19.443Z,16.27
2018-10-09T14:34:48.057Z,14.57
2018-10-09T14:37:16.732Z,15.40
2018-10-09T14:39:45.317Z,13.67
2018-10-09T14:42:13.908Z,13.20
2018-10-09T14:44:43.302Z,14.40
2018-10-09T14:47:11.976Z,14.73
2018-10-09T14:49:40.612Z,13.90
2018-10-09T14:52:09.297Z,15.07
2018-10-09T14:54:37.885Z,15.07
2018-10-09T14:57:06.491Z,14.30
2018-10-09T14:59:35.104Z,15.30
2018-10-09T15:02:03.918Z,16.27
2018-10-09T15:04:34.061Z,14.83
2018-10-09T15:07:02.708Z,14.20
2018-10-09T15:09:31.341Z,15.00
2018-10-09T15:11:59.938Z,13.60
2018-10-09T15:14:28.615Z,15.00
2018-10-09T15:16:57.265Z,14.80
2018-10-09T15:19:25.856Z,14.40
2018-10-09T15:21:54.496Z,16.30
2018-10-09T15:24:23.169Z,14.70
2018-10-09T15:26:51.792Z,14.40
2018-10-09T15:29:20.707Z,14.40
2018-10-09T15:31:50.090Z,15.57
2018-10-09T15:34:18.931Z,13.43
2018-10-09T15:36:47.543Z,13.83
2018-10-09T15:39:16.123Z,13.53
2018-10-09T15:41:44.760Z,14.67
2018-10-09T15:44:13.392Z,14.50
2018-10-09T15:46:42.035Z,14.43
2018-10-09T15:49:11.020Z,15.30
2018-10-09T15:51:39.704Z,14.20
2018-10-09T15:54:08.283Z,14.77
2018-10-09T15:56:36.994Z,14.70
2018-10-09T15:59:05.631Z,14.40
2018-10-09T16:01:34.248Z,14.73
2018-10-09T16:04:02.956Z,14.13
2018-10-09T16:06:31.781Z,12.30
2018-10-09T16:09:00.799Z,12.73
2018-10-09T16:11:29.915Z,12.77
2018-10-09T16:13:58.657Z,13.80
2018-10-09T16:16:27.267Z,10.13
2018-10-09T16:18:55.851Z,10.70
2018-10-09T16:21:24.525Z,11.80
2018-10-09T16:23:53.116Z,13.80
2018-10-09T16:26:21.824Z,12.80
2018-10-09T16:28:50.631Z,11.50
2018-10-09T16:31:19.227Z,11.70
2018-10-09T16:33:47.825Z,12.40
2018-10-09T16:36:16.459Z,11.37
2018-10-09T16:38:45.038Z,9.53
2018-10-09T16:41:13.647Z,10.53
2018-10-09T16:43:42.243Z,10.10
2018-10-09T16:46:11.023Z,10.70
2018-10-09T16:48:39.631Z,10.63
2018-10-09T16:51:08.276Z,11.87
2018-10-09T16:53:36.888Z,10.67
2018-10-09T16:56:05.488Z,12.43
2018-10-09T16:58:34.192Z,11.37
2018-10-09T17:01:02.757Z,11.10
2018-10-09T17:03:31.360Z,10.17
2018-10-09T17:06:01.068Z,10.43
2018-10-09T17:08:29.658Z,10.70
2018-10-09T17:10:58.241Z,11.47
2018-10-09T17:13:26.958Z,12.13
2018-10-09T17:15:55.567Z,11.50
2018-10-09T17:18:24.188Z,12.03
2018-10-09T17:20:52.880Z,12.97
2018-10-09T17:23:21.463Z,13.10
2018-10-09T17:25:50.171Z,14.70
2018-10-09T17:28:18.856Z,15.27
2018-10-09T17:30:47.507Z,13.13
2018-10-09T17:33:16.138Z,16.97
2018-10-09T17:35:44.728Z,15.63
2018-10-09T17:38:13.299Z,14.20
2018-10-09T17:40:41.881Z,15.40
2018-10-09T17:43:10.600Z,16.93
2018-10-09T17:45:39.311Z,15.70
2018-10-09T17:48:07.920Z,17.17
2018-10-09T17:50:36.659Z,18.00
2018-10-09T17:53:05.332Z,17.23
2018-10-09T17:55:33.928Z,17.83
2018-10-09T17:58:02.583Z,17.70
2018-10-09T18:00:31.187Z,18.83
2018-10-09T18:02:59.764Z,19.03
2018-10-09T18:05:28.419Z,17.83
2018-10-09T18:07:57.049Z,20.43
2018-10-09T18:10:25.648Z,20.10
2018-10-09T18:12:54.340Z,19.90
2018-10-09T18:15:22.948Z,17.93
2018-10-09T18:17:51.575Z,20.90
2018-10-09T18:20:20.664Z,19.67
2018-10-09T18:22:49.216Z,19.93
2018-10-09T18:25:17.824Z,21.10
2018-10-09T18:27:46.528Z,21.33
2018-10-09T18:30:15.583Z,20.13
2018-10-09T18:32:44.309Z,20.80
2018-10-09T18:35:12.900Z,21.23
2018-10-09T18:37:41.484Z,21.60
2018-10-09T18:40:10.100Z,23.40
2018-10-09T18:42:38.761Z,21.87
2018-10-09T18:45:07.745Z,24.87
2018-10-09T18:47:41.791Z,23.47
2018-10-09T18:50:10.852Z,25.90
2018-10-09T18:52:40.472Z,24.47
2018-10-09T18:55:11.565Z,23.77
2018-10-09T18:57:40.207Z,23.53
2018-10-09T19:00:09.847Z,23.93
2018-10-09T19:02:39.468Z,22.13
2018-10-09T19:05:08.592Z,24.60
2018-10-09T19:07:37.480Z,24.10
2018-10-09T19:10:06.407Z,23.70
2018-10-09T19:12:35.011Z,23.80
2018-10-09T19:15:03.654Z,25.83
2018-10-09T19:17:32.536Z,24.93
2018-10-09T19:20:01.140Z,25.57
2018-10-09T19:22:29.728Z,26.53
2018-10-09T19:24:58.333Z,24.30
2018-10-09T19:27:26.978Z,26.10
2018-10-09T19:29:55.556Z,27.93
2018-10-09T19:32:24.429Z,26.83
2018-10-09T19:34:52.964Z,26.20
2018-10-09T19:37:22.180Z,27.07
2018-10-09T19:39:51.239Z,28.40
2018-10-09T19:42:19.831Z,29.30
2018-10-09T19:44:48.435Z,27.37
2018-10-09T19:47:17.361Z,27.40
2018-10-09T19:49:45.965Z,27.07
2018-10-09T19:52:14.544Z,27.17
2018-10-09T19:54:43.571Z,26.73
2018-10-09T19:57:12.224Z,27.13
2018-10-09T19:59:41.296Z,27.00
2018-10-09T20:02:10.367Z,29.27
2018-10-09T20:04:39.232Z,28.27
2018-10-09T20:07:07.953Z,28.80
2018-10-09T20:09:36.692Z,28.33
2018-10-09T20:12:05.356Z,29.70
2018-10-09T20:14:33.962Z,30.40
2018-10-09T20:17:02.959Z,29.57
2018-10-09T20:19:31.542Z,28.37
2018-10-09T20:22:00.142Z,28.73
2018-10-09T20:24:29.037Z,28.50
2018-10-09T20:26:57.817Z,27.67
2018-10-09T20:29:26.412Z,29.40
2018-10-09T20:31:55.050Z,30.57
2018-10-09T20:34:23.665Z,29.80
2018-10-09T20:36:52.248Z,31.60
2018-10-09T20:39:20.931Z,27.07
2018-10-09T20:41:49.543Z,28.47
2018-10-09T20:44:18.168Z,30.33
2018-10-09T20:46:46.920Z,30.17
2018-10-09T20:49:15.712Z,30.67
2018-10-09T20:51:44.662Z,30.87
2018-10-09T20:54:14.532Z,29.27
2018-10-09T20:56:43.661Z,31.70
2018-10-09T20:59:12.283Z,31.10
2018-10-09T21:01:41.009Z,30.70
2018-10-09T21:04:09.636Z,33.07
2018-10-09T21:06:38.477Z,30.40
2018-10-09T21:09:07.641Z,29.77
2018-10-09T21:11:36.212Z,30.00
2018-10-09T21:14:04.837Z,32.77
2018-10-09T21:16:33.533Z,31.90
2018-10-09T21:19:02.751Z,31.40
2018-10-09T21:21:31.467Z,35.27
2018-10-09T21:24:00.455Z,35.90
2018-10-09T21:26:29.524Z,28.87
2018-10-09T21:28:58.142Z,30.03
2018-10-09T21:31:26.936Z,29.47
2018-10-09T21:33:55.676Z,30.60
2018-10-09T21:36:24.505Z,32.57
2018-10-09T21:38:53.642Z,35.07
2018-10-09T21:41:22.580Z,40.80
2018-10-09T21:43:51.182Z,36.20
2018-10-09T21:46:20.147Z,35.70
2018-10-09T21:48:48.734Z,35.03
2018-10-09T21:51:17.422Z,36.70
2018-10-09T21:53:46.992Z,36.23
2018-10-09T21:56:15.812Z,33.40
2018-10-09T21:58:44.799Z,34.40
2018-10-09T22:01:14.010Z,32.53
2018-10-09T22:03:42.944Z,32.87
2018-10-09T22:06:12.163Z,30.90
2018-10-09T22:08:41.256Z,29.13
2018-10-09T22:11:10.308Z,27.73
2018-10-09T22:13:39.438Z,32.87
2018-10-09T22:16:08.339Z,30.17
2018-10-09T22:18:36.925Z,28.27
2018-10-09T22:21:06.021Z,29.97
2018-10-09T22:23:34.775Z,30.47
2018-10-09T22:26:03.578Z,30.10
2018-10-09T22:28:32.383Z,29.57
2018-10-09T22:31:01.170Z,29.83
2018-10-09T22:33:30.096Z,28.47
2018-10-09T22:35:58.740Z,30.50
2018-10-09T22:38:27.929Z,30.50
2018-10-09T22:40:56.628Z,32.23
2018-10-09T22:43:25.388Z,29.83
2018-10-09T22:45:55.054Z,30.40
2018-10-09T22:48:23.763Z,33.33
2018-10-09T22:50:52.399Z,29.27
2018-10-09T22:53:21.080Z,31.30
2018-10-09T22:55:49.732Z,33.53
2018-10-09T22:58:18.359Z,31.23
2018-10-09T23:00:46.983Z,32.30
2018-10-09T23:03:15.619Z,29.33
2018-10-09T23:05:44.239Z,32.67
2018-10-09T23:08:13.625Z,27.87
2018-10-09T23:10:42.203Z,27.93
2018-10-09T23:13:10.836Z,30.73
2018-10-09T23:15:39.520Z,29.80
2018-10-09T23:18:08.168Z,33.03
2018-10-09T23:20:36.817Z,30.07
2018-10-09T23:23:05.443Z,31.27
2018-10-09T23:25:34.084Z,30.60
2018-10-09T23:28:03.268Z,31.50
2018-10-09T23:30:32.311Z,29.33
2018-10-09T23:33:01.502Z,27.57
2018-10-09T23:35:30.181Z,27.83
2018-10-09T23:37:58.879Z,31.17
2018-10-09T23:40:28.097Z,28.50
2018-10-09T23:42:56.841Z,28.87
2018-10-09T23:45:25.533Z,26.40
2018-10-09T23:47:58.324Z,26.97
2018-10-09T23:50:27.021Z,27.73
2018-10-09T23:52:56.587Z,29.80
2018-10-09T23:55:25.293Z,29.20
2018-10-09T23:57:53.944Z,26.07
